createdAt,value
2022-10-30T00:00:11.860Z,11.00
2022-10-30T00:03:00.610Z,11.00
2022-10-30T00:05:51.634Z,10.80
2022-10-30T00:08:40.148Z,10.80
2022-10-30T00:11:29.397Z,10.70
2022-10-30T00:14:18.262Z,10.80
2022-10-30T00:17:08.029Z,10.80
2022-10-30T00:19:56.434Z,10.80
2022-10-30T00:22:44.795Z,10.80
2022-10-30T00:25:33.201Z,10.90
2022-10-30T00:28:21.594Z,10.90
2022-10-30T00:31:10.457Z,10.90
2022-10-30T00:34:00.421Z,10.90
2022-10-30T00:36:48.820Z,10.80
2022-10-30T00:39:37.263Z,10.70
2022-10-30T00:42:31.135Z,10.70
2022-10-30T00:45:19.889Z,10.70
2022-10-30T00:48:10.281Z,10.70
2022-10-30T00:51:01.030Z,10.70
2022-10-30T00:53:49.601Z,10.70
2022-10-30T00:56:38.134Z,10.70
2022-10-30T00:59:29.866Z,10.80
2022-10-30T01:02:18.940Z,10.80
2022-10-30T01:05:07.794Z,10.80
2022-10-30T01:07:57.923Z,10.70
2022-10-30T01:10:47.478Z,10.70
2022-10-30T01:13:36.920Z,10.70
2022-10-30T01:16:44.411Z,10.60
2022-10-30T01:19:37.565Z,10.60
2022-10-30T01:22:36.505Z,10.60
2022-10-30T01:25:37.857Z,10.60
2022-10-30T01:28:34.874Z,10.60
2022-10-30T01:31:34.930Z,10.60
2022-10-30T01:34:30.092Z,10.50
2022-10-30T01:37:23.165Z,10.50
2022-10-30T01:40:15.320Z,10.50
2022-10-30T01:43:05.261Z,10.40
2022-10-30T01:46:24.085Z,10.40
2022-10-30T01:49:39.841Z,10.40
2022-10-30T01:52:37.989Z,10.50
2022-10-30T01:55:33.756Z,10.30
2022-10-30T01:58:25.486Z,10.30
2022-10-30T02:01:14.644Z,10.30
2022-10-30T02:06:52.444Z,10.30
2022-10-30T02:09:41.277Z,10.30
2022-10-30T02:12:29.753Z,10.20
2022-10-30T02:15:20.202Z,10.20
2022-10-30T02:18:09.160Z,10.10
2022-10-30T02:20:58.958Z,10.00
2022-10-30T02:23:47.294Z,9.90
2022-10-30T02:26:35.717Z,9.80
2022-10-30T02:29:24.079Z,9.90
2022-10-30T02:32:12.485Z,10.00
2022-10-30T02:35:00.835Z,10.00
2022-10-30T02:37:50.723Z,10.00
2022-10-30T02:40:39.094Z,10.00
2022-10-30T02:43:27.526Z,10.00
2022-10-30T02:46:15.890Z,10.00
2022-10-30T02:49:04.454Z,10.00
2022-10-30T02:51:52.835Z,10.00
2022-10-30T02:54:42.586Z,9.90
2022-10-30T02:57:32.003Z,9.90
2022-10-30T03:00:20.508Z,9.90
2022-10-30T03:03:08.850Z,9.90
2022-10-30T03:05:57.228Z,9.90
2022-10-30T03:08:46.335Z,9.90
2022-10-30T03:11:36.577Z,9.90
2022-10-30T03:14:24.950Z,10.00
2022-10-30T03:17:13.344Z,9.90
2022-10-30T03:20:01.718Z,9.80
2022-10-30T03:22:50.085Z,9.80
2022-10-30T03:25:38.463Z,9.80
2022-10-30T03:28:29.779Z,9.80
2022-10-30T03:31:19.596Z,9.80
2022-10-30T03:34:08.101Z,9.70
2022-10-30T03:36:56.482Z,9.70
2022-10-30T03:39:44.859Z,9.70
2022-10-30T03:42:33.242Z,9.60
2022-10-30T03:45:22.986Z,9.60
2022-10-30T03:48:11.363Z,9.60
2022-10-30T03:51:00.889Z,9.60
2022-10-30T03:53:49.253Z,9.40
2022-10-30T03:56:37.678Z,9.50
2022-10-30T03:59:26.054Z,9.50
2022-10-30T04:02:16.021Z,9.40
2022-10-30T04:05:04.928Z,9.40
2022-10-30T04:07:57.880Z,9.30
2022-10-30T04:10:46.592Z,9.30
2022-10-30T04:13:35.020Z,9.30
2022-10-30T04:16:23.412Z,9.30
2022-10-30T04:19:13.152Z,9.30
2022-10-30T04:22:01.558Z,9.30
2022-10-30T04:24:50.161Z,9.30
2022-10-30T04:27:42.117Z,9.30
2022-10-30T04:30:34.119Z,9.30
2022-10-30T04:33:22.502Z,9.30
2022-10-30T04:36:12.343Z,9.30
2022-10-30T04:39:02.408Z,9.20
2022-10-30T04:41:50.784Z,9.20
2022-10-30T04:44:39.157Z,9.20
2022-10-30T04:47:27.511Z,9.20
2022-10-30T04:50:16.161Z,9.30
2022-10-30T04:53:07.373Z,9.30
2022-10-30T04:55:56.322Z,9.30
2022-10-30T04:58:44.693Z,9.20
2022-10-30T05:01:33.221Z,9.10
2022-10-30T05:04:21.743Z,9.10
2022-10-30T05:07:10.122Z,9.10
2022-10-30T05:09:59.887Z,9.00
2022-10-30T05:12:48.272Z,8.80
2022-10-30T05:15:36.663Z,8.80
2022-10-30T05:18:25.099Z,8.80
2022-10-30T05:21:13.450Z,8.80
2022-10-30T05:24:01.821Z,8.70
2022-10-30T05:26:52.070Z,8.80
2022-10-30T05:29:40.457Z,8.90
2022-10-30T05:32:28.812Z,9.00
2022-10-30T05:35:17.278Z,9.00
2022-10-30T05:38:07.332Z,9.10
2022-10-30T05:40:55.685Z,9.10
2022-10-30T05:43:45.415Z,9.10
2022-10-30T05:46:33.796Z,9.10
2022-10-30T05:49:22.181Z,9.00
2022-10-30T05:52:10.557Z,9.10
2022-10-30T05:54:58.962Z,9.10
2022-10-30T05:57:47.531Z,9.10
2022-10-30T06:00:39.233Z,9.10
2022-10-30T06:03:27.758Z,9.20
2022-10-30T06:06:16.163Z,9.10
2022-10-30T06:09:04.652Z,9.20
2022-10-30T06:11:53.013Z,9.20
2022-10-30T06:14:41.382Z,9.20
2022-10-30T06:17:32.966Z,9.20
2022-10-30T06:20:22.472Z,9.30
2022-10-30T06:23:11.684Z,9.30
2022-10-30T06:26:00.046Z,9.30
2022-10-30T06:28:48.402Z,9.40
2022-10-30T06:31:36.793Z,9.40
2022-10-30T06:34:27.262Z,9.40
2022-10-30T06:37:15.694Z,9.40
2022-10-30T06:40:04.349Z,9.40
2022-10-30T06:42:53.966Z,9.60
2022-10-30T06:45:42.371Z,9.60
2022-10-30T06:48:30.749Z,9.60
2022-10-30T06:51:20.560Z,9.70
2022-10-30T06:54:08.926Z,9.80
2022-10-30T06:56:57.313Z,9.90
2022-10-30T06:59:45.653Z,9.90
2022-10-30T07:02:34.180Z,10.00
2022-10-30T07:05:22.530Z,9.90
2022-10-30T07:08:12.573Z,10.00
2022-10-30T07:11:00.936Z,10.10
2022-10-30T07:13:49.336Z,10.10
2022-10-30T07:16:37.710Z,10.20
2022-10-30T07:19:26.367Z,10.20
2022-10-30T07:22:14.717Z,10.30
2022-10-30T07:25:04.875Z,10.40
2022-10-30T07:27:54.281Z,10.60
2022-10-30T07:30:42.688Z,10.70
2022-10-30T07:33:31.038Z,10.90
2022-10-30T07:36:19.426Z,11.10
2022-10-30T07:39:07.814Z,11.30
2022-10-30T07:41:57.597Z,11.50
2022-10-30T07:44:45.972Z,11.70
2022-10-30T07:47:34.330Z,11.90
2022-10-30T07:50:22.894Z,12.10
2022-10-30T07:53:11.308Z,12.30
2022-10-30T07:55:59.857Z,12.50
2022-10-30T07:58:49.925Z,12.60
2022-10-30T08:01:38.519Z,12.80
2022-10-30T08:04:27.053Z,12.90
2022-10-30T08:07:15.469Z,13.10
2022-10-30T08:10:03.984Z,13.20
2022-10-30T08:12:52.372Z,13.40
2022-10-30T08:15:43.512Z,13.50
2022-10-30T08:18:31.884Z,13.70
2022-10-30T08:21:20.258Z,13.80
2022-10-30T08:24:09.213Z,13.90
2022-10-30T08:26:57.562Z,14.10
2022-10-30T08:29:45.932Z,14.20
2022-10-30T08:32:35.659Z,14.30
2022-10-30T08:35:24.098Z,14.40
2022-10-30T08:38:12.554Z,14.60
2022-10-30T08:41:02.959Z,14.60
2022-10-30T08:43:51.330Z,14.70
2022-10-30T08:46:40.031Z,14.80
2022-10-30T08:49:29.806Z,14.90
2022-10-30T08:52:18.185Z,15.00
2022-10-30T08:55:07.906Z,15.00
2022-10-30T08:57:56.260Z,15.20
2022-10-30T09:00:44.646Z,15.30
2022-10-30T09:03:33.001Z,15.40
2022-10-30T09:06:22.752Z,15.50
2022-10-30T09:09:11.983Z,15.60
2022-10-30T09:12:00.376Z,15.80
2022-10-30T09:14:48.714Z,15.90
2022-10-30T09:17:37.102Z,16.00
2022-10-30T09:20:25.884Z,16.10
2022-10-30T09:23:15.625Z,16.30
2022-10-30T09:26:03.991Z,16.40
2022-10-30T09:28:55.503Z,16.50
2022-10-30T09:31:44.023Z,16.60
2022-10-30T09:34:32.507Z,16.70
2022-10-30T09:37:20.872Z,16.80
2022-10-30T09:40:12.507Z,17.00
2022-10-30T09:43:04.479Z,17.20
2022-10-30T09:46:19.973Z,17.40
2022-10-30T09:49:25.022Z,17.60
2022-10-30T09:52:32.290Z,17.70
2022-10-30T09:55:31.741Z,17.80
2022-10-30T09:58:25.690Z,17.80
2022-10-30T10:01:18.549Z,17.90
2022-10-30T10:04:21.002Z,17.90
2022-10-30T10:07:18.448Z,18.00
2022-10-30T10:10:11.001Z,18.00
2022-10-30T10:13:01.633Z,18.00
2022-10-30T10:15:52.625Z,18.10
2022-10-30T10:18:45.958Z,18.20
2022-10-30T10:21:37.237Z,18.30
2022-10-30T10:24:27.184Z,18.40
2022-10-30T10:27:22.677Z,18.60
2022-10-30T10:30:15.954Z,18.60
2022-10-30T10:33:20.264Z,18.80
2022-10-30T10:36:20.101Z,18.90
2022-10-30T10:39:20.265Z,19.00
2022-10-30T10:42:20.415Z,19.20
2022-10-30T10:45:21.769Z,19.20
2022-10-30T10:48:33.497Z,19.30
2022-10-30T10:51:23.265Z,19.40
2022-10-30T10:54:13.844Z,19.40
2022-10-30T10:57:02.662Z,19.50
2022-10-30T10:59:54.147Z,19.60
2022-10-30T11:02:48.134Z,19.70
2022-10-30T11:05:40.777Z,19.70
2022-10-30T11:08:30.559Z,19.80
2022-10-30T11:11:18.918Z,19.80
2022-10-30T11:14:15.207Z,19.90
2022-10-30T11:17:09.566Z,20.00
2022-10-30T11:20:02.977Z,20.10
2022-10-30T11:23:00.418Z,20.20
2022-10-30T11:25:49.254Z,20.20
2022-10-30T11:28:42.547Z,20.30
2022-10-30T11:31:35.302Z,20.40
2022-10-30T11:34:32.812Z,20.40
2022-10-30T11:37:35.356Z,20.50
2022-10-30T11:40:25.750Z,20.50
2022-10-30T11:43:28.764Z,20.60
2022-10-30T11:46:23.625Z,20.70
2022-10-30T11:49:29.667Z,20.70
2022-10-30T11:52:21.184Z,20.90
2022-10-30T11:55:18.395Z,21.00
2022-10-30T11:58:10.078Z,21.10
2022-10-30T12:01:07.074Z,21.10
2022-10-30T12:03:56.360Z,21.20
2022-10-30T12:06:58.760Z,21.40
2022-10-30T12:09:48.204Z,21.40
2022-10-30T12:12:43.986Z,21.40
2022-10-30T12:15:39.327Z,21.40
2022-10-30T12:21:22.372Z,21.50
2022-10-30T12:24:18.524Z,21.50
2022-10-30T12:27:12.472Z,21.50
2022-10-30T12:30:09.954Z,21.50
2022-10-30T12:33:02.996Z,21.50
2022-10-30T12:35:55.485Z,21.50
2022-10-30T12:38:46.433Z,21.50
2022-10-30T12:41:37.652Z,21.60
2022-10-30T12:44:29.737Z,21.60
2022-10-30T12:47:26.739Z,21.60
2022-10-30T12:50:20.911Z,21.70
2022-10-30T12:53:17.469Z,21.60
2022-10-30T12:56:10.909Z,21.60
2022-10-30T12:59:09.289Z,21.60
2022-10-30T13:02:00.945Z,21.60
2022-10-30T13:04:55.535Z,21.60
2022-10-30T13:07:46.661Z,21.60
2022-10-30T13:10:39.424Z,21.50
2022-10-30T13:13:33.789Z,21.50
2022-10-30T13:16:25.474Z,21.40
2022-10-30T13:19:14.655Z,21.40
2022-10-30T13:22:08.562Z,21.40
2022-10-30T13:25:04.048Z,21.40
2022-10-30T13:27:55.369Z,21.40
2022-10-30T13:30:47.467Z,21.40
2022-10-30T13:33:41.628Z,21.30
2022-10-30T13:36:34.546Z,21.30
2022-10-30T13:39:29.961Z,21.20
2022-10-30T13:42:27.374Z,21.20
2022-10-30T13:45:32.499Z,21.20
2022-10-30T13:48:29.144Z,21.20
2022-10-30T13:51:44.558Z,21.10
2022-10-30T13:54:37.824Z,21.20
2022-10-30T13:57:31.380Z,21.10
2022-10-30T14:00:21.390Z,21.10
2022-10-30T14:03:19.309Z,21.10
2022-10-30T14:06:13.768Z,21.10
2022-10-30T14:09:09.902Z,21.10
2022-10-30T14:12:02.445Z,21.10
2022-10-30T14:14:50.929Z,21.00
2022-10-30T14:17:39.414Z,21.00
2022-10-30T14:20:29.165Z,21.00
2022-10-30T14:23:22.095Z,20.90
2022-10-30T14:26:21.034Z,20.90
2022-10-30T14:29:33.126Z,20.90
2022-10-30T14:32:44.080Z,20.80
2022-10-30T14:35:41.897Z,20.70
2022-10-30T14:38:36.133Z,20.70
2022-10-30T14:41:45.650Z,20.60
2022-10-30T14:45:01.599Z,20.60
2022-10-30T14:47:56.718Z,20.50
2022-10-30T14:50:57.438Z,20.40
2022-10-30T14:53:56.382Z,20.40
2022-10-30T14:56:48.060Z,20.30
2022-10-30T14:59:37.671Z,20.20
2022-10-30T15:02:35.368Z,20.10
2022-10-30T15:05:42.161Z,20.00
2022-10-30T15:09:04.311Z,20.00
2022-10-30T15:12:17.246Z,19.80
2022-10-30T15:15:07.925Z,19.70
2022-10-30T15:17:58.093Z,19.70
2022-10-30T15:20:51.476Z,19.60
2022-10-30T15:23:43.191Z,19.50
2022-10-30T15:26:35.672Z,19.40
2022-10-30T15:29:26.269Z,19.30
2022-10-30T15:32:18.667Z,19.20
2022-10-30T15:35:15.894Z,19.10
2022-10-30T15:38:07.637Z,19.10
2022-10-30T15:40:59.233Z,18.90
2022-10-30T15:43:47.699Z,18.80
2022-10-30T15:46:37.364Z,18.70
2022-10-30T15:49:31.622Z,18.60
2022-10-30T15:52:23.326Z,18.50
2022-10-30T15:55:16.051Z,18.30
2022-10-30T15:58:05.932Z,18.20
2022-10-30T16:00:59.304Z,18.10
2022-10-30T16:03:53.534Z,17.90
2022-10-30T16:06:41.996Z,17.80
2022-10-30T16:09:30.421Z,17.60
2022-10-30T16:12:20.281Z,17.40
2022-10-30T16:15:10.085Z,17.30
2022-10-30T16:18:11.711Z,17.20
2022-10-30T16:21:04.414Z,17.20
2022-10-30T16:23:55.405Z,17.10
2022-10-30T16:26:44.165Z,17.00
2022-10-30T16:29:34.317Z,16.90
2022-10-30T16:32:25.442Z,16.90
2022-10-30T16:35:15.028Z,16.70
2022-10-30T16:38:04.421Z,16.70
2022-10-30T16:40:53.460Z,16.50
2022-10-30T16:43:44.644Z,16.40
2022-10-30T16:46:39.867Z,16.40
2022-10-30T16:49:30.055Z,16.30
2022-10-30T16:52:19.021Z,16.30
2022-10-30T16:55:09.830Z,16.20
2022-10-30T16:58:03.665Z,16.20
2022-10-30T17:00:59.447Z,16.10
2022-10-30T17:03:50.563Z,16.00
2022-10-30T17:06:41.936Z,15.90
2022-10-30T17:09:30.837Z,15.90
2022-10-30T17:12:24.293Z,15.80
2022-10-30T17:15:14.417Z,15.60
2022-10-30T17:18:16.692Z,15.50
2022-10-30T17:21:09.296Z,15.50
2022-10-30T17:24:00.539Z,15.40
2022-10-30T17:26:56.531Z,15.40
2022-10-30T17:29:48.461Z,15.30
2022-10-30T17:32:56.190Z,15.20
2022-10-30T17:35:45.077Z,15.10
2022-10-30T17:38:35.184Z,15.10
2022-10-30T17:41:26.224Z,15.00
2022-10-30T17:44:19.961Z,14.90
2022-10-30T17:47:20.555Z,14.80
2022-10-30T17:50:09.705Z,14.80
2022-10-30T17:53:01.262Z,14.60
2022-10-30T17:55:56.940Z,14.60
2022-10-30T17:58:48.487Z,14.60
2022-10-30T18:01:37.504Z,14.50
2022-10-30T18:04:26.008Z,14.40
2022-10-30T18:07:15.181Z,14.40
2022-10-30T18:10:03.643Z,14.90
2022-10-30T18:12:53.472Z,15.30
2022-10-30T18:15:43.422Z,15.70
2022-10-30T18:18:31.811Z,16.00
2022-10-30T18:21:21.639Z,16.10
2022-10-30T18:24:13.741Z,15.90
2022-10-30T18:27:02.129Z,15.70
2022-10-30T18:29:51.899Z,15.50
2022-10-30T18:32:40.329Z,15.30
2022-10-30T18:35:31.863Z,15.10
2022-10-30T18:38:20.304Z,15.00
2022-10-30T18:41:13.109Z,14.90
2022-10-30T18:44:01.565Z,14.80
2022-10-30T18:46:51.355Z,14.70
2022-10-30T18:49:39.754Z,14.70
2022-10-30T18:53:32.703Z,14.50
2022-10-30T18:56:03.655Z,14.50
2022-10-30T18:58:32.507Z,14.50
2022-10-30T19:01:16.680Z,14.40
2022-10-30T19:03:45.958Z,14.30
2022-10-30T19:06:16.173Z,14.20
2022-10-30T19:08:46.026Z,14.10
2022-10-30T19:11:18.797Z,14.00
2022-10-30T19:13:50.586Z,14.00
2022-10-30T19:16:20.155Z,13.90
2022-10-30T19:18:48.991Z,13.90
2022-10-30T19:21:19.337Z,13.80
2022-10-30T19:23:49.472Z,13.80
2022-10-30T19:26:18.050Z,13.70
2022-10-30T19:28:46.732Z,13.70
2022-10-30T19:31:17.235Z,13.70
2022-10-30T19:33:46.045Z,13.60
2022-10-30T19:36:28.203Z,13.60
2022-10-30T19:38:58.408Z,13.50
2022-10-30T19:41:27.151Z,13.50
2022-10-30T19:43:55.613Z,13.50
2022-10-30T19:46:24.121Z,13.40
2022-10-30T19:48:57.678Z,13.30
2022-10-30T19:51:27.524Z,13.30
2022-10-30T19:53:57.669Z,13.40
2022-10-30T19:56:27.047Z,13.30
2022-10-30T19:58:56.264Z,13.30
2022-10-30T20:01:24.861Z,13.20
2022-10-30T20:03:53.443Z,13.20
2022-10-30T20:06:24.279Z,13.20
2022-10-30T20:08:55.214Z,13.20
2022-10-30T20:11:32.663Z,13.10
2022-10-30T20:14:02.373Z,13.10
2022-10-30T20:16:32.922Z,13.10
2022-10-30T20:19:02.002Z,13.10
2022-10-30T20:21:32.696Z,13.10
2022-10-30T20:24:01.336Z,13.10
2022-10-30T20:26:31.632Z,13.00
2022-10-30T20:29:01.672Z,13.00
2022-10-30T20:31:31.027Z,13.00
2022-10-30T20:34:00.090Z,13.00
2022-10-30T20:36:30.493Z,12.90
2022-10-30T20:38:59.315Z,12.90
2022-10-30T20:41:32.167Z,12.80
2022-10-30T20:44:01.110Z,12.80
2022-10-30T20:46:30.005Z,12.80
2022-10-30T20:49:01.322Z,12.80
2022-10-30T20:51:36.786Z,12.70
2022-10-30T20:54:06.008Z,12.70
2022-10-30T20:56:36.380Z,12.60
2022-10-30T20:59:05.717Z,12.60
2022-10-30T21:01:34.992Z,12.50
2022-10-30T21:04:06.311Z,12.50
2022-10-30T21:06:35.665Z,12.50
2022-10-30T21:09:04.963Z,12.50
2022-10-30T21:11:35.737Z,12.50
2022-10-30T21:14:04.983Z,12.40
2022-10-30T21:16:33.613Z,12.40
2022-10-30T21:19:02.020Z,12.40
2022-10-30T21:21:31.106Z,12.40
2022-10-30T21:23:59.992Z,12.30
2022-10-30T21:26:35.194Z,12.30
2022-10-30T21:29:06.347Z,12.30
2022-10-30T21:31:35.534Z,12.30
2022-10-30T21:34:13.635Z,12.20
2022-10-30T21:36:42.905Z,12.20
2022-10-30T21:39:11.621Z,12.20
2022-10-30T21:41:40.427Z,12.20
2022-10-30T21:44:12.278Z,12.10
2022-10-30T21:46:44.615Z,12.10
2022-10-30T21:49:16.508Z,12.10
2022-10-30T21:51:50.799Z,12.10
2022-10-30T21:54:22.389Z,12.10
2022-10-30T21:56:53.094Z,12.10
2022-10-30T21:59:26.271Z,12.10
2022-10-30T22:01:56.623Z,12.10
2022-10-30T22:04:25.550Z,12.00
2022-10-30T22:06:53.992Z,12.00
2022-10-30T22:09:22.534Z,11.90
2022-10-30T22:11:51.011Z,11.90
2022-10-30T22:14:19.444Z,11.90
2022-10-30T22:16:49.607Z,11.80
2022-10-30T22:19:18.627Z,11.80
2022-10-30T22:21:47.237Z,11.80
2022-10-30T22:24:17.041Z,11.80
2022-10-30T22:26:45.897Z,11.90
2022-10-30T22:29:14.538Z,11.90
2022-10-30T22:31:43.606Z,11.90
2022-10-30T22:34:13.422Z,11.90
2022-10-30T22:36:42.450Z,11.90
2022-10-30T22:39:13.361Z,11.90
2022-10-30T22:41:42.680Z,11.80
2022-10-30T22:44:13.480Z,11.80
2022-10-30T22:46:42.098Z,11.70
2022-10-30T22:49:10.589Z,11.70
2022-10-30T22:51:41.060Z,11.60
2022-10-30T22:54:12.164Z,11.90
2022-10-30T22:56:41.389Z,12.30
2022-10-30T22:59:12.190Z,12.40
2022-10-30T23:01:44.339Z,12.80
2022-10-30T23:04:14.081Z,13.10
2022-10-30T23:06:44.210Z,13.20
2022-10-30T23:09:17.239Z,13.30
2022-10-30T23:11:45.921Z,13.50
2022-10-30T23:14:15.349Z,13.50
2022-10-30T23:16:43.720Z,13.40
2022-10-30T23:19:12.176Z,13.30
2022-10-30T23:21:40.680Z,13.10
2022-10-30T23:24:10.795Z,13.00
2022-10-30T23:26:39.325Z,12.70
2022-10-30T23:29:07.752Z,12.50
2022-10-30T23:31:37.943Z,12.40
2022-10-30T23:34:07.861Z,12.50
2022-10-30T23:36:37.029Z,12.40
2022-10-30T23:39:08.424Z,12.40
2022-10-30T23:41:38.233Z,12.40
2022-10-30T23:44:08.322Z,12.30
2022-10-30T23:46:37.216Z,12.20
2022-10-30T23:49:06.188Z,12.10
2022-10-30T23:51:35.158Z,11.90
2022-10-30T23:54:03.677Z,11.80
2022-10-30T23:56:32.143Z,11.80
2022-10-30T23:59:01.973Z,11.80
